DFCK weather

Koudougou Airport
Koudougou, Boulkiemde, Burkina Faso

Public forecast

Using degrees Celsius for public forecast. Weather courtesy of forecast.io.

METAR (pilot weather report)

Closest report is Ouagadougou Airport, 52.3 nm (96.9 km) E. Retrieved 2019/03/25 06:00 UTC (4 minutes ago):

DFFD 250600Z 14005KT 8000 NSC 27/03 Q1009 NOSIG

TAF (pilot weather forecast)

Closest forecast is Ouagadougou Airport, 52.3 nm (96.9 km) E. Retrieved 2019/03/25 06:21 UTC (0 seconds ago):

TAF DFFD 250500Z 2506/2612 18008KT CAVOK PROB30 TEMPO 2506/2510 4000 HZ PROB30 TEMPO 2516/2524 TS FEW026 FEW040CB